Aviation Digital Data Service (ADDS)

Output produced by METARs form (1908 UTC 23 January 2019)
found at http://aviationweather.gov/metar/data/
 
KSGR 231853Z 32013G21KT 10SM CLR 06/M03 A3013 RMK AO2 SLP203 T00561028
KSGR 231720Z 2318/2418 33012G22KT P6SM SCT120 
     FM240100 33007KT P6SM SKC 
     FM240600 VRB03KT P6SM SKC 
     FM241600 15005KT P6SM SCT250